createdAt,value
2023-08-17T00:01:33.582Z,2.10
2023-08-17T00:04:00.239Z,2.05
2023-08-17T00:06:27.058Z,2.00
2023-08-17T00:08:53.700Z,2.25
2023-08-17T00:11:20.284Z,2.38
2023-08-17T00:13:46.888Z,1.90
2023-08-17T00:16:13.622Z,2.10
2023-08-17T00:18:40.284Z,2.15
2023-08-17T00:21:07.254Z,2.58
2023-08-17T00:23:33.886Z,2.03
2023-08-17T00:26:00.478Z,2.50
2023-08-17T00:28:27.095Z,2.40
2023-08-17T00:30:53.741Z,2.75
2023-08-17T00:33:20.424Z,2.75
2023-08-17T00:35:47.296Z,2.38
2023-08-17T00:38:13.928Z,2.03
2023-08-17T00:40:40.604Z,2.50
2023-08-17T00:43:08.524Z,1.90
2023-08-17T00:45:36.719Z,1.75
2023-08-17T00:48:08.588Z,1.77
2023-08-17T00:50:36.093Z,2.47
2023-08-17T00:53:03.955Z,2.28
2023-08-17T00:55:30.868Z,1.88
2023-08-17T00:57:58.436Z,1.85
2023-08-17T01:00:28.933Z,2.17
2023-08-17T01:02:58.030Z,1.80
2023-08-17T01:05:25.333Z,1.90
2023-08-17T01:07:52.063Z,2.00
2023-08-17T01:10:19.260Z,2.05
2023-08-17T01:13:19.188Z,1.90
2023-08-17T01:15:53.507Z,2.08
2023-08-17T01:18:35.614Z,3.13
2023-08-17T01:21:04.549Z,2.25
2023-08-17T01:23:31.407Z,2.10
2023-08-17T01:25:58.629Z,1.88
2023-08-17T01:28:25.789Z,2.20
2023-08-17T01:31:04.435Z,1.98
2023-08-17T01:33:47.331Z,2.28
2023-08-17T01:36:40.968Z,1.98
2023-08-17T01:39:09.380Z,2.08
2023-08-17T01:41:37.211Z,2.00
2023-08-17T01:44:06.006Z,2.40
2023-08-17T01:46:34.055Z,2.10
2023-08-17T01:49:00.887Z,2.28
2023-08-17T01:51:27.625Z,2.00
2023-08-17T01:53:54.272Z,1.98
2023-08-17T01:56:20.865Z,2.42
2023-08-17T01:58:47.508Z,2.15
2023-08-17T02:01:14.142Z,2.20
2023-08-17T02:03:40.736Z,2.83
2023-08-17T02:06:07.351Z,1.90
2023-08-17T02:08:35.338Z,2.70
2023-08-17T02:11:02.031Z,2.42
2023-08-17T02:13:28.612Z,1.98
2023-08-17T02:16:00.623Z,1.83
2023-08-17T02:18:27.175Z,2.40
2023-08-17T02:20:53.720Z,1.88
2023-08-17T02:23:20.289Z,2.28
2023-08-17T02:25:46.846Z,2.30
2023-08-17T02:28:13.786Z,2.05
2023-08-17T02:30:40.839Z,1.80
2023-08-17T02:33:08.581Z,1.80
2023-08-17T02:35:35.231Z,1.98
2023-08-17T02:38:01.892Z,2.30
2023-08-17T02:40:28.498Z,1.73
2023-08-17T02:42:55.065Z,2.05
2023-08-17T02:45:23.044Z,2.30
2023-08-17T02:47:49.668Z,2.45
2023-08-17T02:50:16.462Z,2.25
2023-08-17T02:52:43.875Z,2.50
2023-08-17T02:55:10.503Z,1.77
2023-08-17T02:57:37.075Z,1.90
2023-08-17T03:00:05.192Z,2.20
2023-08-17T03:02:31.819Z,2.05
2023-08-17T03:04:58.547Z,2.13
2023-08-17T03:07:25.303Z,1.85
2023-08-17T03:09:52.066Z,2.55
2023-08-17T03:12:19.083Z,2.15
2023-08-17T03:14:45.694Z,2.03
2023-08-17T03:17:13.471Z,1.90
2023-08-17T03:19:40.150Z,2.33
2023-08-17T03:22:06.800Z,2.53
2023-08-17T03:24:33.466Z,2.35
2023-08-17T03:27:00.574Z,2.63
2023-08-17T03:29:28.010Z,2.03
2023-08-17T03:31:56.909Z,2.15
2023-08-17T03:34:23.978Z,2.22
2023-08-17T03:36:51.113Z,2.17
2023-08-17T03:39:17.734Z,2.15
2023-08-17T03:41:44.634Z,2.38
2023-08-17T03:44:11.277Z,2.63
2023-08-17T03:46:37.937Z,2.00
2023-08-17T03:49:05.108Z,2.15
2023-08-17T03:51:32.027Z,2.22
2023-08-17T03:53:58.695Z,2.38
2023-08-17T03:56:25.288Z,2.45
2023-08-17T03:58:54.143Z,2.10
2023-08-17T04:01:21.533Z,2.00
2023-08-17T04:03:48.263Z,2.20
2023-08-17T04:06:15.118Z,2.03
2023-08-17T04:08:42.997Z,2.30
2023-08-17T04:11:09.618Z,2.13
2023-08-17T04:13:36.170Z,2.25
2023-08-17T04:16:02.867Z,2.25
2023-08-17T04:18:29.558Z,2.45
2023-08-17T04:20:56.219Z,2.10
2023-08-17T04:23:22.906Z,2.60
2023-08-17T04:25:49.602Z,2.33
2023-08-17T04:28:17.001Z,1.92
2023-08-17T04:30:44.437Z,2.63
2023-08-17T04:33:11.137Z,2.08
2023-08-17T04:35:38.636Z,2.30
2023-08-17T04:38:05.394Z,2.40
2023-08-17T04:40:32.970Z,2.17
2023-08-17T04:43:00.088Z,1.80
2023-08-17T04:45:27.850Z,2.33
2023-08-17T04:47:54.576Z,1.88
2023-08-17T04:50:21.305Z,2.22
2023-08-17T04:52:48.701Z,1.98
2023-08-17T04:55:15.586Z,2.25
2023-08-17T04:57:43.322Z,1.90
2023-08-17T05:00:12.448Z,1.80
2023-08-17T05:02:39.238Z,2.35
2023-08-17T05:05:07.711Z,2.03
2023-08-17T05:07:34.842Z,2.38
2023-08-17T05:10:02.051Z,2.05
2023-08-17T05:12:34.061Z,2.28
2023-08-17T05:15:00.966Z,2.13
2023-08-17T05:17:28.103Z,2.58
2023-08-17T05:19:56.922Z,2.03
2023-08-17T05:22:23.609Z,2.83
2023-08-17T05:24:50.250Z,2.30
2023-08-17T05:27:18.905Z,2.10
2023-08-17T05:29:45.567Z,2.60
2023-08-17T05:32:12.224Z,2.45
2023-08-17T05:34:39.104Z,2.63
2023-08-17T05:37:05.762Z,2.30
2023-08-17T05:39:33.594Z,2.35
2023-08-17T05:42:01.870Z,2.17
2023-08-17T05:44:28.470Z,2.28
2023-08-17T05:46:55.084Z,2.45
2023-08-17T05:49:21.737Z,2.28
2023-08-17T05:51:48.284Z,2.47
2023-08-17T05:54:14.933Z,2.63
2023-08-17T05:56:45.684Z,2.58
2023-08-17T05:59:12.363Z,2.50
2023-08-17T06:01:39.014Z,2.65
2023-08-17T06:04:07.014Z,2.67
2023-08-17T06:06:34.789Z,2.97
2023-08-17T06:09:01.439Z,2.92
2023-08-17T06:11:28.032Z,2.38
2023-08-17T06:13:54.658Z,2.55
2023-08-17T06:16:21.251Z,2.47
2023-08-17T06:18:47.823Z,2.60
2023-08-17T06:21:14.412Z,2.38
2023-08-17T06:23:40.944Z,2.65
2023-08-17T06:26:08.918Z,2.28
2023-08-17T06:28:35.469Z,2.60
2023-08-17T06:31:02.482Z,2.55
2023-08-17T06:33:29.053Z,2.53
2023-08-17T06:35:55.637Z,2.30
2023-08-17T06:38:22.201Z,2.03
2023-08-17T06:40:49.093Z,2.50
2023-08-17T06:43:17.190Z,2.38
2023-08-17T06:45:45.577Z,2.45
2023-08-17T06:48:12.200Z,2.17
2023-08-17T06:50:39.044Z,2.72
2023-08-17T06:53:06.030Z,2.50
2023-08-17T06:55:32.660Z,2.35
2023-08-17T06:57:59.888Z,2.70
2023-08-17T07:00:27.108Z,2.20
2023-08-17T07:02:56.325Z,2.28
2023-08-17T07:05:25.405Z,2.45
2023-08-17T07:07:52.450Z,2.30
2023-08-17T07:10:19.013Z,2.80
2023-08-17T07:12:46.081Z,2.20
2023-08-17T07:15:13.522Z,2.60
2023-08-17T07:17:40.584Z,2.60
2023-08-17T07:20:16.338Z,2.47
2023-08-17T07:22:43.849Z,2.45
2023-08-17T07:25:10.591Z,2.40
2023-08-17T07:27:37.457Z,2.53
2023-08-17T07:30:04.323Z,2.08
2023-08-17T07:32:31.145Z,2.38
2023-08-17T07:34:57.992Z,2.22
2023-08-17T07:37:24.972Z,2.30
2023-08-17T07:39:51.871Z,2.40
2023-08-17T07:42:18.519Z,2.55
2023-08-17T07:44:45.243Z,2.55
2023-08-17T07:47:11.908Z,2.40
2023-08-17T07:49:38.542Z,2.00
2023-08-17T07:52:05.155Z,2.25
2023-08-17T07:54:31.801Z,2.38
2023-08-17T07:56:58.383Z,2.45
2023-08-17T07:59:25.292Z,2.40
2023-08-17T08:01:52.018Z,2.28
2023-08-17T08:04:18.649Z,2.28
2023-08-17T08:06:45.204Z,2.15
2023-08-17T08:09:11.781Z,2.40
2023-08-17T08:11:38.415Z,2.20
2023-08-17T08:14:05.295Z,2.50
2023-08-17T08:16:32.041Z,1.90
2023-08-17T08:18:58.946Z,2.05
2023-08-17T08:21:25.935Z,2.47
2023-08-17T08:23:52.534Z,2.50
2023-08-17T08:26:19.118Z,2.03
2023-08-17T08:28:46.282Z,2.05
2023-08-17T08:31:13.076Z,2.28
2023-08-17T08:33:39.805Z,2.50
2023-08-17T08:36:07.498Z,1.85
2023-08-17T08:38:34.103Z,2.13
2023-08-17T08:41:01.637Z,2.10
2023-08-17T08:43:28.235Z,2.28
2023-08-17T08:45:56.505Z,2.88
2023-08-17T08:48:24.147Z,2.00
2023-08-17T08:50:51.558Z,2.35
2023-08-17T08:53:24.681Z,2.15
2023-08-17T08:55:58.688Z,2.10
2023-08-17T08:58:26.350Z,2.10
2023-08-17T09:00:53.557Z,2.53
2023-08-17T09:03:21.639Z,2.15
2023-08-17T09:05:49.583Z,2.00
2023-08-17T09:08:28.573Z,2.28
2023-08-17T09:10:55.171Z,2.40
2023-08-17T09:13:22.040Z,2.40
2023-08-17T09:15:48.710Z,2.78
2023-08-17T09:18:16.999Z,2.28
2023-08-17T09:20:49.334Z,2.30
2023-08-17T09:23:20.970Z,2.60
2023-08-17T09:25:48.814Z,1.73
2023-08-17T09:28:17.538Z,2.25
2023-08-17T09:30:54.056Z,2.00
2023-08-17T09:33:23.272Z,2.13
2023-08-17T09:35:51.439Z,2.33
2023-08-17T09:38:18.934Z,1.88
2023-08-17T09:40:45.937Z,2.30
2023-08-17T09:43:14.161Z,2.03
2023-08-17T09:45:40.837Z,2.20
2023-08-17T09:48:10.564Z,2.40
2023-08-17T09:50:38.919Z,1.90
2023-08-17T09:53:05.904Z,1.95
2023-08-17T09:55:35.731Z,2.20
2023-08-17T09:58:03.190Z,1.70
2023-08-17T10:00:31.349Z,2.05
2023-08-17T10:02:58.979Z,2.10
2023-08-17T10:05:29.448Z,2.53
2023-08-17T10:07:59.158Z,2.50
2023-08-17T10:10:27.607Z,2.10
2023-08-17T10:13:38.708Z,2.20
2023-08-17T10:16:12.153Z,2.00
2023-08-17T10:18:46.715Z,2.10
2023-08-17T10:21:24.335Z,2.10
2023-08-17T10:23:53.042Z,1.92
2023-08-17T10:26:21.072Z,1.83
2023-08-17T10:28:47.977Z,2.30
2023-08-17T10:31:15.356Z,1.88
2023-08-17T10:33:45.636Z,2.03
2023-08-17T10:36:13.946Z,1.83
2023-08-17T10:38:40.782Z,1.92
2023-08-17T10:41:17.788Z,1.80
2023-08-17T10:44:00.764Z,2.10
2023-08-17T10:46:38.307Z,1.80
2023-08-17T10:49:08.749Z,1.70
2023-08-17T10:51:35.568Z,1.67
2023-08-17T10:54:04.095Z,1.48
2023-08-17T10:56:31.339Z,1.63
2023-08-17T10:59:04.057Z,1.83
2023-08-17T11:01:37.830Z,1.80
2023-08-17T11:04:12.435Z,1.77
2023-08-17T11:06:39.329Z,1.70
2023-08-17T11:09:09.950Z,2.00
2023-08-17T11:11:36.816Z,1.80
2023-08-17T11:14:03.769Z,1.73
2023-08-17T11:16:30.509Z,1.60
2023-08-17T11:18:59.799Z,1.95
2023-08-17T11:21:26.699Z,1.90
2023-08-17T11:23:56.884Z,1.90
2023-08-17T11:26:23.689Z,1.70
2023-08-17T11:28:50.909Z,1.80
2023-08-17T11:31:17.577Z,1.75
2023-08-17T11:33:45.903Z,1.55
2023-08-17T11:36:12.808Z,1.77
2023-08-17T11:38:44.771Z,1.45
2023-08-17T11:43:41.820Z,1.80
2023-08-17T11:46:08.765Z,2.15
2023-08-17T11:48:37.508Z,1.48
2023-08-17T11:51:05.249Z,1.95
2023-08-17T11:53:40.482Z,1.73
2023-08-17T11:56:09.971Z,1.73
2023-08-17T11:58:44.940Z,1.50
2023-08-17T12:01:13.230Z,2.20
2023-08-17T12:03:41.999Z,1.90
2023-08-17T12:06:09.566Z,1.67
2023-08-17T12:08:36.445Z,2.17
2023-08-17T12:11:07.041Z,1.50
2023-08-17T12:13:37.042Z,1.88
2023-08-17T12:16:04.700Z,2.25
2023-08-17T12:18:35.419Z,1.55
2023-08-17T12:21:02.491Z,1.50
2023-08-17T12:23:29.644Z,2.08
2023-08-17T12:25:56.808Z,1.83
2023-08-17T12:28:24.598Z,1.90
2023-08-17T12:31:01.865Z,1.90
2023-08-17T12:33:28.702Z,1.90
2023-08-17T12:35:56.801Z,1.65
2023-08-17T12:38:25.281Z,1.58
2023-08-17T12:40:51.877Z,1.60
2023-08-17T12:43:18.538Z,1.70
2023-08-17T12:45:45.177Z,2.10
2023-08-17T12:48:11.788Z,2.00
2023-08-17T12:50:43.401Z,1.80
2023-08-17T12:53:10.635Z,2.15
2023-08-17T12:55:37.281Z,2.15
2023-08-17T12:58:04.023Z,1.65
2023-08-17T13:00:30.621Z,1.75
2023-08-17T13:02:57.202Z,1.80
2023-08-17T13:05:23.907Z,1.95
2023-08-17T13:07:50.567Z,1.67
2023-08-17T13:10:17.243Z,1.85
2023-08-17T13:12:43.964Z,1.60
2023-08-17T13:15:10.596Z,2.30
2023-08-17T13:17:37.236Z,2.33
2023-08-17T13:20:06.238Z,1.80
2023-08-17T13:22:33.721Z,2.10
2023-08-17T13:25:00.372Z,2.28
2023-08-17T13:27:26.992Z,1.98
2023-08-17T13:29:53.608Z,1.98
2023-08-17T13:32:20.200Z,2.13
2023-08-17T13:34:46.986Z,2.03
2023-08-17T13:37:13.593Z,1.75
2023-08-17T13:39:40.184Z,1.90
2023-08-17T13:42:06.905Z,1.90
2023-08-17T13:44:33.457Z,2.10
2023-08-17T13:47:00.087Z,1.98
2023-08-17T13:49:28.678Z,1.80
2023-08-17T13:51:57.428Z,1.98
2023-08-17T13:54:24.917Z,1.73
2023-08-17T13:56:52.436Z,2.13
2023-08-17T13:59:19.023Z,2.20
2023-08-17T14:01:45.764Z,1.90
2023-08-17T14:04:13.411Z,2.00
2023-08-17T14:06:40.169Z,2.13
2023-08-17T14:09:06.900Z,2.15
2023-08-17T14:11:33.572Z,2.28
2023-08-17T14:14:00.258Z,1.95
2023-08-17T14:16:34.312Z,2.35
2023-08-17T14:19:00.925Z,1.70
2023-08-17T14:21:27.551Z,1.83
2023-08-17T14:23:54.164Z,1.90
2023-08-17T14:26:20.744Z,2.00
2023-08-17T14:28:47.352Z,1.85
2023-08-17T14:31:18.258Z,1.80
2023-08-17T14:33:48.925Z,2.20
2023-08-17T14:38:45.593Z,2.17
2023-08-17T14:41:12.463Z,1.92
2023-08-17T14:43:39.062Z,1.90
2023-08-17T14:46:05.792Z,2.40
2023-08-17T14:48:32.483Z,2.03
2023-08-17T14:50:59.087Z,2.03
2023-08-17T14:53:25.782Z,2.38
2023-08-17T14:55:52.461Z,1.88
2023-08-17T14:58:19.312Z,1.98
2023-08-17T15:00:45.964Z,2.78
2023-08-17T15:03:12.659Z,2.78
2023-08-17T15:05:39.419Z,2.58
2023-08-17T15:08:06.526Z,2.20
2023-08-17T15:10:34.624Z,2.72
2023-08-17T15:13:01.326Z,2.55
2023-08-17T15:15:28.028Z,3.58
2023-08-17T15:17:54.674Z,2.72
2023-08-17T15:20:21.292Z,2.13
2023-08-17T15:22:47.905Z,2.50
2023-08-17T15:25:14.509Z,3.00
2023-08-17T15:27:41.064Z,2.47
2023-08-17T15:30:08.330Z,2.08
2023-08-17T15:32:35.165Z,2.33
2023-08-17T15:35:01.799Z,1.88
2023-08-17T15:37:30.036Z,2.20
2023-08-17T15:39:56.966Z,2.20
2023-08-17T15:42:23.560Z,2.10
2023-08-17T15:44:51.756Z,2.55
2023-08-17T15:47:18.371Z,2.17
2023-08-17T15:49:45.989Z,2.75
2023-08-17T15:52:12.914Z,2.58
2023-08-17T15:54:39.493Z,2.50
2023-08-17T15:57:06.232Z,2.55
2023-08-17T15:59:32.973Z,2.53
2023-08-17T16:01:59.975Z,2.30
2023-08-17T16:04:26.650Z,1.90
2023-08-17T16:06:53.421Z,2.10
2023-08-17T16:09:22.178Z,2.20
2023-08-17T16:11:49.204Z,2.30
2023-08-17T16:14:15.807Z,2.15
2023-08-17T16:16:42.496Z,1.73
2023-08-17T16:19:09.272Z,1.67
2023-08-17T16:21:38.273Z,1.10
2023-08-17T16:24:05.611Z,1.00
2023-08-17T16:26:35.252Z,1.45
2023-08-17T16:29:02.298Z,1.15
2023-08-17T16:31:29.212Z,1.00
2023-08-17T16:33:55.919Z,0.85
2023-08-17T16:36:22.634Z,1.20
2023-08-17T16:38:55.116Z,1.10
2023-08-17T16:41:22.435Z,1.02
2023-08-17T16:43:49.179Z,1.08
2023-08-17T16:46:16.393Z,1.05
2023-08-17T16:48:43.078Z,1.67
2023-08-17T16:51:09.666Z,1.42
2023-08-17T16:53:36.506Z,1.50
2023-08-17T16:56:03.291Z,1.17
2023-08-17T16:58:29.877Z,1.60
2023-08-17T17:00:56.579Z,1.85
2023-08-17T17:03:23.222Z,1.80
2023-08-17T17:05:49.814Z,1.80
2023-08-17T17:08:16.417Z,1.75
2023-08-17T17:10:43.004Z,1.35
2023-08-17T17:13:09.722Z,1.42
2023-08-17T17:15:36.361Z,1.50
2023-08-17T17:18:03.059Z,1.58
2023-08-17T17:20:32.149Z,1.60
2023-08-17T17:22:59.043Z,1.80
2023-08-17T17:25:25.813Z,1.23
2023-08-17T17:27:52.636Z,1.30
2023-08-17T17:30:19.240Z,1.70
2023-08-17T17:32:46.085Z,1.30
2023-08-17T17:35:12.808Z,1.65
2023-08-17T17:37:39.403Z,1.15
2023-08-17T17:40:06.981Z,1.13
2023-08-17T17:42:33.588Z,1.33
2023-08-17T17:45:00.203Z,1.35
2023-08-17T17:47:27.371Z,1.30
2023-08-17T17:49:54.438Z,1.83
2023-08-17T17:52:21.034Z,1.65
2023-08-17T17:54:47.601Z,1.50
2023-08-17T17:57:14.203Z,1.52
2023-08-17T17:59:40.824Z,1.65
2023-08-17T18:02:07.516Z,1.27
2023-08-17T18:04:34.180Z,1.48
2023-08-17T18:07:00.783Z,1.50
2023-08-17T18:09:27.865Z,1.15
2023-08-17T18:11:54.475Z,0.98
2023-08-17T18:14:21.045Z,1.20
2023-08-17T18:16:47.738Z,0.98
2023-08-17T18:19:15.422Z,1.52
2023-08-17T18:21:42.006Z,1.25
2023-08-17T18:24:08.622Z,1.50
2023-08-17T18:26:35.234Z,1.30
2023-08-17T18:29:02.136Z,2.25
2023-08-17T18:31:29.064Z,1.40
2023-08-17T18:33:55.715Z,1.25
2023-08-17T18:36:22.417Z,1.17
2023-08-17T18:38:49.084Z,1.27
2023-08-17T18:41:15.981Z,1.05
2023-08-17T18:43:42.536Z,1.35
2023-08-17T18:46:09.206Z,1.20
2023-08-17T18:48:35.969Z,1.30
2023-08-17T18:51:02.645Z,1.77
2023-08-17T18:53:29.212Z,1.30
2023-08-17T18:55:55.854Z,1.60
2023-08-17T18:58:22.480Z,1.17
2023-08-17T19:00:49.071Z,1.30
2023-08-17T19:03:16.081Z,1.23
2023-08-17T19:05:42.799Z,0.82
2023-08-17T19:08:09.527Z,1.30
2023-08-17T19:10:36.393Z,1.55
2023-08-17T19:13:03.587Z,1.33
2023-08-17T19:15:30.228Z,1.48
2023-08-17T19:17:56.814Z,1.42
2023-08-17T19:20:23.428Z,1.70
2023-08-17T19:22:50.164Z,1.33
2023-08-17T19:25:16.781Z,1.30
2023-08-17T19:27:43.364Z,1.50
2023-08-17T19:30:11.760Z,1.85
2023-08-17T19:32:41.896Z,1.75
2023-08-17T19:35:08.784Z,1.55
2023-08-17T19:37:35.643Z,1.80
2023-08-17T19:40:04.167Z,1.25
2023-08-17T19:42:31.131Z,1.77
2023-08-17T19:44:57.715Z,0.95
2023-08-17T19:47:24.537Z,1.83
2023-08-17T19:49:51.178Z,1.63
2023-08-17T19:52:17.888Z,1.70
2023-08-17T19:54:49.465Z,1.35
2023-08-17T19:57:16.097Z,1.85
2023-08-17T19:59:42.668Z,1.67
2023-08-17T20:02:09.228Z,1.30
2023-08-17T20:04:35.887Z,1.15
2023-08-17T20:07:04.247Z,1.17
2023-08-17T20:09:30.847Z,1.35
2023-08-17T20:11:57.431Z,1.50
2023-08-17T20:14:23.989Z,1.95
2023-08-17T20:16:50.580Z,1.20
2023-08-17T20:19:17.195Z,1.52
2023-08-17T20:21:43.796Z,1.50
2023-08-17T20:24:10.743Z,1.40
2023-08-17T20:26:38.379Z,1.60
2023-08-17T20:29:05.015Z,1.50
2023-08-17T20:31:31.721Z,1.10
2023-08-17T20:33:58.324Z,1.30
2023-08-17T20:36:24.896Z,1.60
2023-08-17T20:38:53.041Z,1.25
2023-08-17T20:41:20.887Z,1.83
2023-08-17T20:43:47.663Z,1.80
2023-08-17T20:46:14.456Z,1.45
2023-08-17T20:48:41.375Z,1.90
2023-08-17T20:51:08.759Z,1.55
2023-08-17T20:53:36.138Z,1.42
2023-08-17T20:56:03.912Z,2.00
2023-08-17T20:58:30.639Z,1.30
2023-08-17T21:00:59.544Z,1.70
2023-08-17T21:03:26.362Z,1.33
2023-08-17T21:05:53.003Z,1.30
2023-08-17T21:08:19.681Z,1.50
2023-08-17T21:10:48.777Z,2.08
2023-08-17T21:13:15.394Z,2.00
2023-08-17T21:15:42.094Z,1.75
2023-08-17T21:18:08.825Z,1.42
2023-08-17T21:20:35.456Z,1.40
2023-08-17T21:23:02.021Z,2.00
2023-08-17T21:25:28.592Z,1.80
2023-08-17T21:27:55.233Z,1.40
2023-08-17T21:30:22.213Z,1.55
2023-08-17T21:32:49.214Z,1.40
2023-08-17T21:35:15.903Z,1.35
2023-08-17T21:37:44.159Z,1.70
2023-08-17T21:40:14.374Z,1.73
2023-08-17T21:42:40.996Z,1.42
2023-08-17T21:45:08.132Z,1.30
2023-08-17T21:47:34.699Z,1.23
2023-08-17T21:50:01.294Z,1.17
2023-08-17T21:52:27.867Z,1.17
2023-08-17T21:54:54.411Z,1.02
2023-08-17T21:57:21.006Z,1.40
2023-08-17T21:59:47.638Z,1.58
2023-08-17T22:02:14.234Z,1.33
2023-08-17T22:04:40.849Z,1.83
2023-08-17T22:07:07.442Z,1.60
2023-08-17T22:09:34.387Z,1.30
2023-08-17T22:12:01.946Z,1.33
2023-08-17T22:14:30.518Z,1.65
2023-08-17T22:16:57.799Z,1.55
2023-08-17T22:19:24.433Z,1.60
2023-08-17T22:21:51.097Z,1.17
2023-08-17T22:24:17.638Z,1.40
2023-08-17T22:26:44.376Z,2.00
2023-08-17T22:29:11.230Z,1.60
2023-08-17T22:31:37.971Z,1.77
2023-08-17T22:34:04.561Z,1.52
2023-08-17T22:36:31.224Z,1.85
2023-08-17T22:38:57.941Z,1.73
2023-08-17T22:41:24.648Z,1.77
2023-08-17T22:43:51.234Z,1.65
2023-08-17T22:46:17.881Z,1.75
2023-08-17T22:48:44.713Z,1.73
2023-08-17T22:51:14.569Z,1.33
2023-08-17T22:53:42.042Z,1.55
2023-08-17T22:56:08.667Z,1.52
2023-08-17T22:58:35.492Z,1.45
2023-08-17T23:01:02.178Z,1.50
2023-08-17T23:03:29.266Z,1.42
2023-08-17T23:05:55.969Z,1.75
2023-08-17T23:08:22.588Z,1.73
2023-08-17T23:10:49.144Z,1.55
2023-08-17T23:13:15.816Z,1.55
2023-08-17T23:15:42.517Z,1.33
2023-08-17T23:18:09.239Z,1.50
2023-08-17T23:20:36.120Z,1.35
2023-08-17T23:23:02.880Z,1.42
2023-08-17T23:25:30.205Z,1.42
2023-08-17T23:27:56.874Z,1.40
2023-08-17T23:30:23.506Z,2.00
2023-08-17T23:32:52.737Z,1.60
2023-08-17T23:35:19.728Z,1.30
2023-08-17T23:37:46.296Z,1.80
2023-08-17T23:40:12.918Z,1.48
2023-08-17T23:42:39.542Z,1.67
2023-08-17T23:45:06.823Z,1.60
2023-08-17T23:47:33.671Z,1.65
2023-08-17T23:50:00.359Z,1.95
2023-08-17T23:52:26.949Z,1.48
2023-08-17T23:54:53.504Z,1.75
2023-08-17T23:57:20.075Z,1.20
2023-08-17T23:59:46.960Z,1.17
